createdAt,value
2023-04-15T00:00:10.000Z,276.09
2023-04-15T00:02:16.000Z,276.09
2023-04-15T00:03:42.000Z,276.09
2023-04-15T00:05:49.000Z,276.09
2023-04-15T00:07:15.000Z,276.09
2023-04-15T00:09:22.000Z,276.09
2023-04-15T00:10:48.000Z,276.09
2023-04-15T00:12:54.000Z,276.02
2023-04-15T00:14:21.000Z,276.02
2023-04-15T00:16:27.000Z,275.96
2023-04-15T00:19:18.000Z,275.9
2023-04-15T00:20:44.000Z,275.96
2023-04-15T00:22:51.000Z,275.96
2023-04-15T00:24:17.000Z,275.96
2023-04-15T00:26:23.000Z,275.96
2023-04-15T00:27:50.000Z,275.96
2023-04-15T00:29:56.000Z,275.96
2023-04-15T00:31:22.000Z,275.9
2023-04-15T00:33:29.000Z,275.9
2023-04-15T00:34:55.000Z,275.9
2023-04-15T00:37:01.000Z,275.84
2023-04-15T00:38:28.000Z,275.77
2023-04-15T00:40:34.000Z,275.71
2023-04-15T00:42:00.000Z,275.71
2023-04-15T00:44:07.000Z,275.71
2023-04-15T00:45:33.000Z,275.77
2023-04-15T00:47:39.000Z,275.71
2023-04-15T00:49:06.000Z,275.77
2023-04-15T00:51:12.000Z,275.77
2023-04-15T00:52:38.000Z,275.77
2023-04-15T00:54:45.000Z,275.84
2023-04-15T00:57:36.000Z,275.84
2023-04-15T00:59:02.000Z,275.84
2023-04-15T01:01:08.000Z,275.84
2023-04-15T01:02:35.000Z,275.9
2023-04-15T01:04:41.000Z,275.9
2023-04-15T01:06:08.000Z,275.84
2023-04-15T01:08:14.000Z,275.77
2023-04-15T01:09:40.000Z,275.71
2023-04-15T01:11:47.000Z,275.65
2023-04-15T01:13:13.000Z,275.65
2023-04-15T01:15:19.000Z,275.65
2023-04-15T01:16:46.000Z,275.71
2023-04-15T01:18:52.000Z,275.65
2023-04-15T01:20:19.000Z,275.65
2023-04-15T01:22:25.000Z,275.65
2023-04-15T01:23:51.000Z,275.65
2023-04-15T01:25:58.000Z,275.59
2023-04-15T01:27:24.000Z,275.65
2023-04-15T01:29:30.000Z,275.71
2023-04-15T01:30:57.000Z,275.71
2023-04-15T01:33:03.000Z,275.71
2023-04-15T01:35:54.000Z,275.77
2023-04-15T01:37:21.000Z,275.9
2023-04-15T01:39:27.000Z,275.96
2023-04-15T01:40:53.000Z,275.96
2023-04-15T01:42:59.000Z,276.02
2023-04-15T01:44:26.000Z,276.02
2023-04-15T01:46:32.000Z,276.02
2023-04-15T01:47:59.000Z,276.02
2023-04-15T01:50:05.000Z,275.9
2023-04-15T01:51:31.000Z,275.96
2023-04-15T01:53:37.000Z,275.9
2023-04-15T01:55:04.000Z,275.9
2023-04-15T01:57:10.000Z,275.9
2023-04-15T01:58:37.000Z,275.9
2023-04-15T02:00:43.000Z,275.96
2023-04-15T02:02:09.000Z,275.96
2023-04-15T02:04:15.000Z,276.02
2023-04-15T02:05:42.000Z,276.02
2023-04-15T02:07:48.000Z,276.02
2023-04-15T02:09:14.000Z,276.02
2023-04-15T02:11:21.000Z,275.96
2023-04-15T02:14:12.000Z,275.9
2023-04-15T02:15:38.000Z,275.9
2023-04-15T02:17:44.000Z,275.96
2023-04-15T02:19:11.000Z,275.96
2023-04-15T02:21:17.000Z,275.96
2023-04-15T02:22:44.000Z,276.02
2023-04-15T02:24:50.000Z,276.02
2023-04-15T02:26:16.000Z,275.9
2023-04-15T02:28:22.000Z,275.9
2023-04-15T02:29:49.000Z,275.9
2023-04-15T02:31:55.000Z,275.9
2023-04-15T02:33:21.000Z,275.9
2023-04-15T02:35:28.000Z,275.84
2023-04-15T02:36:54.000Z,275.84
2023-04-15T02:39:00.000Z,275.84
2023-04-15T02:40:27.000Z,275.9
2023-04-15T02:42:33.000Z,275.9
2023-04-15T02:44:00.000Z,275.96
2023-04-15T02:46:06.000Z,275.96
2023-04-15T02:47:33.000Z,275.96
2023-04-15T02:49:39.000Z,275.9
2023-04-15T02:52:30.000Z,275.9
2023-04-15T02:53:56.000Z,275.96
2023-04-15T02:56:03.000Z,275.96
2023-04-15T02:57:29.000Z,275.96
2023-04-15T02:59:35.000Z,275.96
2023-04-15T03:01:02.000Z,276.02
2023-04-15T03:03:08.000Z,276.02
2023-04-15T03:04:35.000Z,276.02
2023-04-15T03:06:41.000Z,276.02
2023-04-15T03:08:07.000Z,276.02
2023-04-15T03:10:14.000Z,276.15
2023-04-15T03:11:40.000Z,276.15
2023-04-15T03:13:46.000Z,276.09
2023-04-15T03:15:13.000Z,276.09
2023-04-15T03:17:19.000Z,276.09
2023-04-15T03:18:45.000Z,276.09
2023-04-15T03:20:51.000Z,276.15
2023-04-15T03:22:18.000Z,276.09
2023-04-15T03:24:24.000Z,276.09
2023-04-15T03:25:51.000Z,276.09
2023-04-15T03:27:57.000Z,276.09
2023-04-15T03:30:48.000Z,276.02
2023-04-15T03:32:15.000Z,276.02
2023-04-15T03:34:21.000Z,276.09
2023-04-15T03:35:47.000Z,276.09
2023-04-15T03:37:53.000Z,276.02
2023-04-15T03:39:20.000Z,276.02
2023-04-15T03:41:26.000Z,276.09
2023-04-15T03:42:52.000Z,276.02
2023-04-15T03:44:59.000Z,276.09
2023-04-15T03:46:25.000Z,276.02
2023-04-15T03:48:31.000Z,276.02
2023-04-15T03:49:58.000Z,276.02
2023-04-15T03:52:04.000Z,275.96
2023-04-15T03:53:30.000Z,276.02
2023-04-15T03:55:36.000Z,276.02
2023-04-15T03:57:03.000Z,276.02
2023-04-15T03:59:09.000Z,276.02
2023-04-15T04:00:35.000Z,276.02
2023-04-15T04:02:41.000Z,276.02
2023-04-15T04:04:08.000Z,275.96
2023-04-15T04:06:15.000Z,275.96
2023-04-15T04:09:06.000Z,275.9
2023-04-15T04:10:33.000Z,275.9
2023-04-15T04:12:39.000Z,275.84
2023-04-15T04:14:05.000Z,275.77
2023-04-15T04:16:11.000Z,275.77
2023-04-15T04:17:38.000Z,275.84
2023-04-15T04:19:44.000Z,275.84
2023-04-15T04:21:11.000Z,275.9
2023-04-15T04:23:17.000Z,275.9
2023-04-15T04:24:44.000Z,275.9
2023-04-15T04:26:50.000Z,275.9
2023-04-15T04:28:16.000Z,275.9
2023-04-15T04:30:22.000Z,275.9
2023-04-15T04:31:49.000Z,275.9
2023-04-15T04:33:55.000Z,275.84
2023-04-15T04:35:21.000Z,275.77
2023-04-15T04:37:27.000Z,275.77
2023-04-15T04:38:54.000Z,275.77
2023-04-15T04:41:00.000Z,275.77
2023-04-15T04:42:27.000Z,275.77
2023-04-15T04:44:33.000Z,275.71
2023-04-15T04:47:24.000Z,275.71
2023-04-15T04:48:50.000Z,275.77
2023-04-15T04:50:56.000Z,275.84
2023-04-15T04:52:23.000Z,275.84
2023-04-15T04:54:29.000Z,275.84
2023-04-15T04:55:56.000Z,275.9
2023-04-15T04:58:02.000Z,275.9
2023-04-15T04:59:28.000Z,275.96
2023-04-15T05:01:35.000Z,275.96
2023-04-15T05:03:01.000Z,275.96
2023-04-15T05:05:08.000Z,275.96
2023-04-15T05:06:34.000Z,275.96
2023-04-15T05:08:40.000Z,276.02
2023-04-15T05:10:07.000Z,276.09
2023-04-15T05:12:13.000Z,276.09
2023-04-15T05:13:39.000Z,276.09
2023-04-15T05:15:45.000Z,276.09
2023-04-15T05:17:12.000Z,276.15
2023-04-15T05:19:18.000Z,276.15
2023-04-15T05:20:45.000Z,276.27
2023-04-15T05:22:51.000Z,276.27
2023-04-15T05:25:42.000Z,276.34
2023-04-15T05:27:08.000Z,276.4
2023-04-15T05:29:15.000Z,276.46
2023-04-15T05:30:41.000Z,276.46
2023-04-15T05:32:47.000Z,276.52
2023-04-15T05:34:14.000Z,276.52
2023-04-15T05:36:20.000Z,276.59
2023-04-15T05:37:46.000Z,276.65
2023-04-15T05:39:53.000Z,276.71
2023-04-15T05:41:19.000Z,276.77
2023-04-15T05:43:25.000Z,276.84
2023-04-15T05:44:52.000Z,276.96
2023-04-15T05:46:58.000Z,277.27
2023-04-15T05:48:24.000Z,277.4
2023-04-15T05:50:31.000Z,277.59
2023-04-15T05:51:57.000Z,277.65
2023-04-15T05:54:03.000Z,277.65
2023-04-15T05:55:30.000Z,277.59
2023-04-15T05:57:36.000Z,277.71
2023-04-15T05:59:02.000Z,277.77
2023-04-15T06:01:08.000Z,277.77
2023-04-15T06:03:59.000Z,277.77
2023-04-15T06:05:26.000Z,277.84
2023-04-15T06:07:32.000Z,277.84
2023-04-15T06:08:59.000Z,277.77
2023-04-15T06:11:05.000Z,277.84
2023-04-15T06:12:32.000Z,277.96
2023-04-15T06:14:38.000Z,278.21
2023-04-15T06:16:05.000Z,278.27
2023-04-15T06:18:11.000Z,278.46
2023-04-15T06:19:37.000Z,278.46
2023-04-15T06:21:43.000Z,278.52
2023-04-15T06:23:10.000Z,278.59
2023-04-15T06:25:16.000Z,278.65
2023-04-15T06:26:43.000Z,278.71
2023-04-15T06:28:49.000Z,278.71
2023-04-15T06:30:15.000Z,278.71
2023-04-15T06:32:21.000Z,278.77
2023-04-15T06:33:48.000Z,278.77
2023-04-15T06:35:54.000Z,278.77
2023-04-15T06:37:21.000Z,278.84
2023-04-15T06:39:27.000Z,278.9
2023-04-15T06:42:18.000Z,278.96
2023-04-15T06:43:44.000Z,278.96
2023-04-15T06:45:50.000Z,279.02
2023-04-15T06:47:17.000Z,279.02
2023-04-15T06:49:23.000Z,279.02
2023-04-15T06:50:50.000Z,279.09
2023-04-15T06:52:56.000Z,279.09
2023-04-15T06:54:22.000Z,279.15
2023-04-15T06:56:28.000Z,279.21
2023-04-15T06:57:55.000Z,279.21
2023-04-15T07:00:01.000Z,279.21
2023-04-15T07:01:28.000Z,279.34
2023-04-15T07:03:34.000Z,279.4
2023-04-15T07:05:00.000Z,279.4
2023-04-15T07:07:06.000Z,279.4
2023-04-15T07:08:33.000Z,279.46
2023-04-15T07:10:39.000Z,279.52
2023-04-15T07:12:06.000Z,279.65
2023-04-15T07:14:12.000Z,279.71
2023-04-15T07:15:39.000Z,279.77
2023-04-15T07:17:45.000Z,279.84
2023-04-15T07:20:36.000Z,279.96
2023-04-15T07:22:02.000Z,280.02
2023-04-15T07:24:08.000Z,280.09
2023-04-15T07:25:35.000Z,280.15
2023-04-15T07:27:41.000Z,280.09
2023-04-15T07:29:07.000Z,280.09
2023-04-15T07:31:13.000Z,280.09
2023-04-15T07:32:40.000Z,280.09
2023-04-15T07:34:46.000Z,280.09
2023-04-15T07:36:13.000Z,280.09
2023-04-15T07:38:19.000Z,280.02
2023-04-15T07:39:45.000Z,280.02
2023-04-15T07:41:51.000Z,280.02
2023-04-15T07:43:18.000Z,280.09
2023-04-15T07:45:24.000Z,280.09
2023-04-15T07:46:51.000Z,280.09
2023-04-15T07:48:57.000Z,280.09
2023-04-15T07:50:23.000Z,280.09
2023-04-15T07:52:29.000Z,280.09
2023-04-15T07:53:56.000Z,280.15
2023-04-15T07:56:02.000Z,280.09
2023-04-15T07:58:53.000Z,280.15
2023-04-15T08:00:20.000Z,280.21
2023-04-15T08:02:26.000Z,280.27
2023-04-15T08:03:53.000Z,280.21
2023-04-15T08:05:59.000Z,280.21
2023-04-15T08:07:25.000Z,280.21
2023-04-15T08:09:32.000Z,280.15
2023-04-15T08:10:58.000Z,280.15
2023-04-15T08:13:04.000Z,280.09
2023-04-15T08:14:31.000Z,280.09
2023-04-15T08:16:37.000Z,280.02
2023-04-15T08:18:03.000Z,280.02
2023-04-15T08:20:10.000Z,279.96
2023-04-15T08:21:36.000Z,280.02
2023-04-15T08:23:42.000Z,280.02
2023-04-15T08:25:09.000Z,280.09
2023-04-15T08:27:15.000Z,280.02
2023-04-15T08:28:41.000Z,279.96
2023-04-15T08:30:47.000Z,280.02
2023-04-15T08:32:14.000Z,280.02
2023-04-15T08:34:20.000Z,279.96
2023-04-15T08:37:11.000Z,279.9
2023-04-15T08:38:38.000Z,279.96
2023-04-15T08:40:44.000Z,279.9
2023-04-15T08:42:10.000Z,279.9
2023-04-15T08:44:16.000Z,279.84
2023-04-15T08:45:43.000Z,279.84
2023-04-15T08:47:49.000Z,279.84
2023-04-15T08:49:15.000Z,279.84
2023-04-15T08:51:22.000Z,279.84
2023-04-15T08:52:49.000Z,279.84
2023-04-15T08:54:55.000Z,279.77
2023-04-15T08:56:22.000Z,279.84
2023-04-15T08:58:28.000Z,279.84
2023-04-15T08:59:54.000Z,279.84
2023-04-15T09:02:00.000Z,279.84
2023-04-15T09:03:27.000Z,279.84
2023-04-15T09:05:33.000Z,279.84
2023-04-15T09:07:00.000Z,279.84
2023-04-15T09:09:06.000Z,279.84
2023-04-15T09:10:32.000Z,279.84
2023-04-15T09:12:39.000Z,279.84
2023-04-15T09:15:29.000Z,279.84
2023-04-15T09:16:56.000Z,279.84
2023-04-15T09:19:02.000Z,279.9
2023-04-15T09:20:29.000Z,279.96
2023-04-15T09:22:35.000Z,279.96
2023-04-15T09:24:01.000Z,279.96
2023-04-15T09:26:08.000Z,280.02
2023-04-15T09:27:34.000Z,280.09
2023-04-15T09:29:40.000Z,280.09
2023-04-15T09:31:07.000Z,280.09
2023-04-15T09:33:13.000Z,280.09
2023-04-15T09:34:39.000Z,280.09
2023-04-15T09:36:46.000Z,280.09
2023-04-15T09:38:15.000Z,280.09
2023-04-15T09:40:21.000Z,280.09
2023-04-15T09:41:47.000Z,280.02
2023-04-15T09:43:54.000Z,280.02
2023-04-15T09:45:20.000Z,280.09
2023-04-15T09:47:26.000Z,280.09
2023-04-15T09:48:53.000Z,280.09
2023-04-15T09:50:59.000Z,280.09
2023-04-15T09:53:50.000Z,280.09
2023-04-15T09:55:17.000Z,280.02
2023-04-15T09:57:23.000Z,280.09
2023-04-15T09:58:50.000Z,280.15
2023-04-15T10:00:56.000Z,280.09
2023-04-15T10:02:22.000Z,280.09
2023-04-15T10:04:29.000Z,280.09
2023-04-15T10:05:55.000Z,280.02
2023-04-15T10:08:01.000Z,280.02
2023-04-15T10:09:28.000Z,280.02
2023-04-15T10:11:34.000Z,280.02
2023-04-15T10:13:00.000Z,280.09
2023-04-15T10:15:06.000Z,280.02
2023-04-15T10:16:33.000Z,280.02
2023-04-15T10:18:39.000Z,280.02
2023-04-15T10:20:05.000Z,280.02
2023-04-15T10:22:12.000Z,280.02
2023-04-15T10:23:38.000Z,280.02
2023-04-15T10:25:44.000Z,279.96
2023-04-15T10:27:11.000Z,280.02
2023-04-15T10:29:17.000Z,280.02
2023-04-15T10:32:08.000Z,280.02
2023-04-15T10:33:34.000Z,280.02
2023-04-15T10:35:41.000Z,280.09
2023-04-15T10:37:07.000Z,280.09
2023-04-15T10:39:13.000Z,280.09
2023-04-15T10:40:40.000Z,280.09
2023-04-15T10:42:46.000Z,280.15
2023-04-15T10:44:12.000Z,280.15
2023-04-15T10:46:18.000Z,280.21
2023-04-15T10:47:45.000Z,280.21
2023-04-15T10:49:51.000Z,280.21
2023-04-15T10:51:18.000Z,280.21
2023-04-15T10:53:24.000Z,280.21
2023-04-15T10:54:50.000Z,280.27
2023-04-15T10:56:56.000Z,280.27
2023-04-15T10:58:23.000Z,280.34
2023-04-15T11:00:29.000Z,280.34
2023-04-15T11:01:55.000Z,280.4
2023-04-15T11:04:02.000Z,280.4
2023-04-15T11:05:29.000Z,280.34
2023-04-15T11:07:35.000Z,280.4
2023-04-15T11:10:26.000Z,280.4
2023-04-15T11:11:53.000Z,280.4
2023-04-15T11:13:59.000Z,280.4
2023-04-15T11:15:26.000Z,280.4
2023-04-15T11:17:32.000Z,280.4
2023-04-15T11:18:59.000Z,280.46
2023-04-15T11:21:05.000Z,280.4
2023-04-15T11:22:31.000Z,280.46
2023-04-15T11:24:37.000Z,280.4
2023-04-15T11:26:04.000Z,280.4
2023-04-15T11:28:10.000Z,280.46
2023-04-15T11:29:36.000Z,280.46
2023-04-15T11:31:43.000Z,280.46
2023-04-15T11:33:09.000Z,280.46
2023-04-15T11:35:15.000Z,280.46
2023-04-15T11:36:42.000Z,280.46
2023-04-15T11:38:48.000Z,280.4
2023-04-15T11:40:15.000Z,280.4
2023-04-15T11:42:21.000Z,280.4
2023-04-15T11:43:47.000Z,280.4
2023-04-15T11:45:53.000Z,280.4
2023-04-15T11:48:45.000Z,280.34
2023-04-15T11:50:11.000Z,280.4
2023-04-15T11:52:18.000Z,280.4
2023-04-15T11:53:44.000Z,280.4
2023-04-15T11:55:50.000Z,280.4
2023-04-15T11:57:17.000Z,280.4
2023-04-15T11:59:23.000Z,280.4
2023-04-15T12:01:00.000Z,280.4
2023-04-15T12:03:06.000Z,280.4
2023-04-15T12:04:33.000Z,280.4
2023-04-15T12:06:39.000Z,280.4
2023-04-15T12:08:06.000Z,280.4
2023-04-15T12:10:12.000Z,280.4
2023-04-15T12:11:38.000Z,280.4
2023-04-15T12:13:44.000Z,280.34
2023-04-15T12:15:11.000Z,280.34
2023-04-15T12:17:17.000Z,280.34
2023-04-15T12:18:44.000Z,280.34
2023-04-15T12:20:50.000Z,280.34
2023-04-15T12:22:16.000Z,280.34
2023-04-15T12:24:22.000Z,280.34
2023-04-15T12:27:14.000Z,280.34
2023-04-15T12:28:40.000Z,280.34
2023-04-15T12:30:46.000Z,280.34
2023-04-15T12:32:13.000Z,280.34
2023-04-15T12:34:19.000Z,280.34
2023-04-15T12:35:45.000Z,280.34
2023-04-15T12:37:52.000Z,280.34
2023-04-15T12:39:18.000Z,280.34
2023-04-15T12:41:24.000Z,280.34
2023-04-15T12:42:51.000Z,280.34
2023-04-15T12:44:57.000Z,280.34
2023-04-15T12:46:23.000Z,280.34
2023-04-15T12:48:30.000Z,280.34
2023-04-15T12:49:56.000Z,280.34
2023-04-15T12:52:02.000Z,280.34
2023-04-15T12:53:29.000Z,280.34
2023-04-15T12:55:35.000Z,280.4
2023-04-15T12:57:02.000Z,280.34
2023-04-15T12:59:11.000Z,280.34
2023-04-15T13:00:38.000Z,280.4
2023-04-15T13:02:44.000Z,280.34
2023-04-15T13:05:35.000Z,280.34
2023-04-15T13:07:02.000Z,280.34
2023-04-15T13:09:08.000Z,280.34
2023-04-15T13:10:34.000Z,280.34
2023-04-15T13:12:41.000Z,280.34
2023-04-15T13:14:07.000Z,280.34
2023-04-15T13:16:13.000Z,280.4
2023-04-15T13:17:40.000Z,280.34
2023-04-15T13:19:46.000Z,280.34
2023-04-15T13:21:13.000Z,280.4
2023-04-15T13:23:19.000Z,280.4
2023-04-15T13:24:45.000Z,280.4
2023-04-15T13:26:51.000Z,280.34
2023-04-15T13:28:18.000Z,280.34
2023-04-15T13:30:24.000Z,280.34
2023-04-15T13:31:51.000Z,280.34
2023-04-15T13:33:57.000Z,280.27
2023-04-15T13:35:23.000Z,280.27
2023-04-15T13:37:29.000Z,280.27
2023-04-15T13:38:56.000Z,280.27
2023-04-15T13:41:02.000Z,280.27
2023-04-15T13:43:53.000Z,280.27
2023-04-15T13:45:20.000Z,280.34
2023-04-15T13:47:26.000Z,280.27
2023-04-15T13:48:53.000Z,280.27
2023-04-15T13:50:59.000Z,280.27
2023-04-15T13:52:25.000Z,280.27
2023-04-15T13:54:31.000Z,280.27
2023-04-15T13:56:02.000Z,280.27
2023-04-15T13:58:08.000Z,280.27
2023-04-15T13:59:35.000Z,280.27
2023-04-15T14:01:41.000Z,280.21
2023-04-15T14:03:08.000Z,280.21
2023-04-15T14:05:14.000Z,280.21
2023-04-15T14:06:40.000Z,280.21
2023-04-15T14:08:47.000Z,280.21
2023-04-15T14:10:13.000Z,280.21
2023-04-15T14:12:19.000Z,280.21
2023-04-15T14:13:46.000Z,280.21
2023-04-15T14:15:52.000Z,280.21
2023-04-15T14:17:18.000Z,280.21
2023-04-15T14:19:24.000Z,280.21
2023-04-15T14:22:15.000Z,280.21
2023-04-15T14:23:42.000Z,280.21
2023-04-15T14:25:48.000Z,280.21
2023-04-15T14:27:15.000Z,280.15
2023-04-15T14:29:21.000Z,280.15
2023-04-15T14:30:47.000Z,280.15
2023-04-15T14:32:53.000Z,280.15
2023-04-15T14:34:20.000Z,280.15
2023-04-15T14:36:26.000Z,280.15
2023-04-15T14:37:53.000Z,280.21
2023-04-15T14:39:59.000Z,280.21
2023-04-15T14:41:25.000Z,280.21
2023-04-15T14:43:32.000Z,280.21
2023-04-15T14:44:58.000Z,280.21
2023-04-15T14:47:04.000Z,280.21
2023-04-15T14:48:31.000Z,280.21
2023-04-15T14:50:37.000Z,280.21
2023-04-15T14:52:04.000Z,280.21
2023-04-15T14:54:10.000Z,280.21
2023-04-15T14:55:36.000Z,280.27
2023-04-15T14:57:42.000Z,280.27
2023-04-15T15:00:34.000Z,280.27
2023-04-15T15:02:00.000Z,280.27
2023-04-15T15:04:06.000Z,280.27
2023-04-15T15:05:33.000Z,280.27
2023-04-15T15:07:39.000Z,280.34
2023-04-15T15:09:06.000Z,280.34
2023-04-15T15:11:12.000Z,280.34
2023-04-15T15:12:38.000Z,280.34
2023-04-15T15:14:45.000Z,280.34
2023-04-15T15:16:11.000Z,280.34
2023-04-15T15:18:18.000Z,280.34
2023-04-15T15:19:45.000Z,280.34
2023-04-15T15:21:51.000Z,280.34
2023-04-15T15:23:18.000Z,280.34
2023-04-15T15:25:24.000Z,280.34
2023-04-15T15:26:50.000Z,280.34
2023-04-15T15:28:56.000Z,280.34
2023-04-15T15:30:23.000Z,280.34
2023-04-15T15:32:29.000Z,280.4
2023-04-15T15:33:56.000Z,280.4
2023-04-15T15:36:02.000Z,280.4
2023-04-15T15:38:53.000Z,280.4
2023-04-15T15:40:19.000Z,280.46
2023-04-15T15:42:26.000Z,280.46
2023-04-15T15:43:52.000Z,280.46
2023-04-15T15:45:58.000Z,280.46
2023-04-15T15:47:25.000Z,280.46
2023-04-15T15:49:31.000Z,280.46
2023-04-15T15:50:57.000Z,280.46
2023-04-15T15:53:04.000Z,280.46
2023-04-15T15:54:30.000Z,280.46
2023-04-15T15:56:36.000Z,280.46
2023-04-15T15:58:03.000Z,280.46
2023-04-15T16:00:09.000Z,280.46
2023-04-15T16:01:37.000Z,280.52
2023-04-15T16:03:43.000Z,280.52
2023-04-15T16:05:10.000Z,280.52
2023-04-15T16:07:16.000Z,280.52
2023-04-15T16:08:43.000Z,280.52
2023-04-15T16:10:49.000Z,280.52
2023-04-15T16:12:15.000Z,280.52
2023-04-15T16:14:21.000Z,280.52
2023-04-15T16:17:13.000Z,280.52
2023-04-15T16:18:39.000Z,280.52
2023-04-15T16:20:45.000Z,280.52
2023-04-15T16:22:12.000Z,280.52
2023-04-15T16:24:18.000Z,280.52
2023-04-15T16:25:44.000Z,280.52
2023-04-15T16:27:50.000Z,280.52
2023-04-15T16:29:33.000Z,280.52
2023-04-15T16:31:39.000Z,280.52
2023-04-15T16:33:05.000Z,280.52
2023-04-15T16:35:12.000Z,280.52
2023-04-15T16:36:38.000Z,280.52
2023-04-15T16:38:45.000Z,280.52
2023-04-15T16:40:11.000Z,280.52
2023-04-15T16:42:17.000Z,280.52
2023-04-15T16:43:44.000Z,280.52
2023-04-15T16:45:50.000Z,280.52
2023-04-15T16:47:16.000Z,280.52
2023-04-15T16:49:22.000Z,280.52
2023-04-15T16:50:49.000Z,280.52
2023-04-15T16:52:55.000Z,280.52
2023-04-15T16:55:46.000Z,280.52
2023-04-15T16:57:13.000Z,280.52
2023-04-15T16:59:19.000Z,280.52
2023-04-15T17:00:45.000Z,280.52
2023-04-15T17:02:52.000Z,280.52
2023-04-15T17:04:18.000Z,280.52
2023-04-15T17:06:25.000Z,280.52
2023-04-15T17:07:51.000Z,280.52
2023-04-15T17:09:57.000Z,280.52
2023-04-15T17:11:24.000Z,280.52
2023-04-15T17:13:30.000Z,280.52
2023-04-15T17:14:56.000Z,280.52
2023-04-15T17:17:02.000Z,280.52
2023-04-15T17:18:29.000Z,280.59
2023-04-15T17:20:35.000Z,280.59
2023-04-15T17:22:02.000Z,280.59
2023-04-15T17:24:08.000Z,280.52
2023-04-15T17:25:34.000Z,280.59
2023-04-15T17:27:40.000Z,280.59
2023-04-15T17:29:07.000Z,280.59
2023-04-15T17:31:13.000Z,280.59
2023-04-15T17:34:04.000Z,280.59
2023-04-15T17:35:35.000Z,280.59
2023-04-15T17:37:41.000Z,280.59
2023-04-15T17:39:07.000Z,280.59
2023-04-15T17:41:13.000Z,280.59
2023-04-15T17:42:40.000Z,280.59
2023-04-15T17:44:46.000Z,280.59
2023-04-15T17:46:13.000Z,280.59
2023-04-15T17:48:19.000Z,280.59
2023-04-15T17:49:45.000Z,280.59
2023-04-15T17:51:51.000Z,280.59
2023-04-15T17:53:18.000Z,280.65
2023-04-15T17:55:24.000Z,280.59
2023-04-15T17:56:50.000Z,280.59
2023-04-15T17:58:57.000Z,280.59
2023-04-15T18:00:23.000Z,280.65
2023-04-15T18:02:29.000Z,280.65
2023-04-15T18:03:59.000Z,280.65
2023-04-15T18:06:06.000Z,280.65
2023-04-15T18:07:32.000Z,280.65
2023-04-15T18:09:38.000Z,280.65
2023-04-15T18:12:30.000Z,280.65
2023-04-15T18:13:56.000Z,280.65
2023-04-15T18:16:02.000Z,280.65
2023-04-15T18:17:29.000Z,280.59
2023-04-15T18:19:35.000Z,280.59
2023-04-15T18:21:02.000Z,280.65
2023-04-15T18:23:08.000Z,280.59
2023-04-15T18:24:34.000Z,280.65
2023-04-15T18:26:40.000Z,280.65
2023-04-15T18:28:07.000Z,280.65
2023-04-15T18:30:13.000Z,280.65
2023-04-15T18:31:39.000Z,280.59
2023-04-15T18:33:46.000Z,280.59
2023-04-15T18:35:12.000Z,280.59
2023-04-15T18:37:18.000Z,280.59
2023-04-15T18:38:45.000Z,280.65
2023-04-15T18:40:51.000Z,280.65
2023-04-15T18:42:17.000Z,280.65
2023-04-15T18:44:24.000Z,280.65
2023-04-15T18:45:50.000Z,280.65
2023-04-15T18:47:56.000Z,280.65
2023-04-15T18:50:48.000Z,280.65
2023-04-15T18:52:14.000Z,280.65
2023-04-15T18:54:20.000Z,280.65
2023-04-15T18:55:47.000Z,280.65
2023-04-15T18:57:53.000Z,280.65
2023-04-15T18:59:30.000Z,280.71
2023-04-15T19:01:37.000Z,280.65
2023-04-15T19:03:03.000Z,280.71
2023-04-15T19:05:09.000Z,280.71
2023-04-15T19:06:36.000Z,280.65
2023-04-15T19:08:42.000Z,280.65
2023-04-15T19:10:09.000Z,280.71
2023-04-15T19:12:15.000Z,280.71
2023-04-15T19:13:41.000Z,280.65
2023-04-15T19:15:47.000Z,280.65
2023-04-15T19:17:14.000Z,280.65
2023-04-15T19:19:20.000Z,280.65
2023-04-15T19:20:47.000Z,280.65
2023-04-15T19:22:53.000Z,280.65
2023-04-15T19:24:19.000Z,280.71
2023-04-15T19:26:25.000Z,280.71
2023-04-15T19:29:16.000Z,280.65
2023-04-15T19:30:43.000Z,280.71
2023-04-15T19:32:49.000Z,280.65
2023-04-15T19:34:15.000Z,280.65
2023-04-15T19:36:22.000Z,280.71
2023-04-15T19:37:48.000Z,280.71
2023-04-15T19:39:54.000Z,280.71
2023-04-15T19:41:21.000Z,280.71
2023-04-15T19:43:27.000Z,280.71
2023-04-15T19:44:53.000Z,280.71
2023-04-15T19:46:59.000Z,280.71
2023-04-15T19:48:26.000Z,280.71
2023-04-15T19:50:32.000Z,280.71
2023-04-15T19:51:58.000Z,280.71
2023-04-15T19:54:05.000Z,280.71
2023-04-15T19:55:31.000Z,280.71
2023-04-15T19:57:37.000Z,280.71
2023-04-15T19:59:04.000Z,280.71
2023-04-15T20:01:10.000Z,280.71
2023-04-15T20:02:37.000Z,280.71
2023-04-15T20:04:43.000Z,280.71
2023-04-15T20:07:34.000Z,280.71
2023-04-15T20:09:00.000Z,280.77
2023-04-15T20:11:07.000Z,280.71
2023-04-15T20:12:33.000Z,280.71
2023-04-15T20:14:57.000Z,280.71
2023-04-15T20:16:23.000Z,280.71
2023-04-15T20:18:29.000Z,280.71
2023-04-15T20:19:56.000Z,280.77
2023-04-15T20:22:02.000Z,280.71
2023-04-15T20:23:28.000Z,280.77
2023-04-15T20:25:34.000Z,280.77
2023-04-15T20:27:01.000Z,280.71
2023-04-15T20:29:07.000Z,280.77
2023-04-15T20:30:33.000Z,280.77
2023-04-15T20:32:39.000Z,280.77
2023-04-15T20:36:12.000Z,280.77
2023-04-15T20:37:39.000Z,280.77
2023-04-15T20:39:45.000Z,280.77
2023-04-15T20:41:11.000Z,280.77
2023-04-15T20:43:17.000Z,280.77
2023-04-15T20:46:09.000Z,280.77
2023-04-15T20:47:45.000Z,280.77
2023-04-15T20:49:51.000Z,280.77
2023-04-15T20:51:17.000Z,280.77
2023-04-15T20:53:23.000Z,280.77
2023-04-15T20:54:50.000Z,280.77
2023-04-15T20:56:56.000Z,280.77
2023-04-15T20:58:23.000Z,280.77
2023-04-15T21:00:29.000Z,280.77
2023-04-15T21:01:55.000Z,280.77
2023-04-15T21:04:01.000Z,280.77
2023-04-15T21:05:28.000Z,280.77
2023-04-15T21:07:34.000Z,280.77
2023-04-15T21:09:01.000Z,280.77
2023-04-15T21:11:07.000Z,280.77
2023-04-15T21:12:34.000Z,280.71
2023-04-15T21:14:40.000Z,280.77
2023-04-15T21:16:06.000Z,280.77
2023-04-15T21:18:13.000Z,280.77
2023-04-15T21:19:39.000Z,280.77
2023-04-15T21:21:45.000Z,280.77
2023-04-15T21:24:36.000Z,280.77
2023-04-15T21:26:03.000Z,280.77
2023-04-15T21:28:09.000Z,280.77
2023-04-15T21:29:35.000Z,280.77
2023-04-15T21:31:41.000Z,280.77
2023-04-15T21:33:08.000Z,280.77
2023-04-15T21:35:14.000Z,280.77
2023-04-15T21:36:41.000Z,280.84
2023-04-15T21:38:47.000Z,280.84
2023-04-15T21:40:13.000Z,280.77
2023-04-15T21:42:20.000Z,280.84
2023-04-15T21:43:46.000Z,280.77
2023-04-15T21:45:52.000Z,280.77
2023-04-15T21:47:49.000Z,280.77
2023-04-15T21:50:11.000Z,280.77
2023-04-15T21:51:37.000Z,280.77
2023-04-15T21:53:44.000Z,280.77
2023-04-15T21:55:10.000Z,280.77
2023-04-15T21:57:16.000Z,280.77
2023-04-15T21:58:43.000Z,280.84
2023-04-15T22:00:49.000Z,280.77
2023-04-15T22:03:40.000Z,280.84
2023-04-15T22:05:07.000Z,280.84
2023-04-15T22:07:13.000Z,280.84
2023-04-15T22:08:39.000Z,280.84
2023-04-15T22:11:00.000Z,280.84
2023-04-15T22:12:27.000Z,280.84
2023-04-15T22:14:33.000Z,280.84
2023-04-15T22:15:59.000Z,280.84
2023-04-15T22:18:05.000Z,280.84
2023-04-15T22:19:32.000Z,280.84
2023-04-15T22:21:38.000Z,280.84
2023-04-15T22:23:05.000Z,280.84
2023-04-15T22:25:11.000Z,280.84
2023-04-15T22:26:37.000Z,280.84
2023-04-15T22:28:43.000Z,280.84
2023-04-15T22:30:10.000Z,280.84
2023-04-15T22:32:16.000Z,280.9
2023-04-15T22:33:43.000Z,280.9
2023-04-15T22:35:49.000Z,280.84
2023-04-15T22:37:15.000Z,280.9
2023-04-15T22:39:21.000Z,280.9
2023-04-15T22:42:12.000Z,280.9
2023-04-15T22:43:39.000Z,280.9
2023-04-15T22:45:45.000Z,280.9
2023-04-15T22:47:12.000Z,280.9
2023-04-15T22:49:18.000Z,280.9
2023-04-15T22:50:44.000Z,280.9
2023-04-15T22:52:50.000Z,280.9
2023-04-15T22:54:17.000Z,280.9